sensor_id;sensor_type;location;lat;lon;timestamp;pressure;altitude;pressure_sealevel;temperature;humidity
59055;BME280;44845;51.444;7.460;2022-11-20T00:02:20;99379.34;;;0.75;66.43
59055;BME280;44845;51.444;7.460;2022-11-20T00:04:46;99384.63;;;0.80;66.68
59055;BME280;44845;51.444;7.460;2022-11-20T00:07:11;99379.50;;;0.81;66.90
59055;BME280;44845;51.444;7.460;2022-11-20T00:09:36;99380.34;;;0.82;67.24
59055;BME280;44845;51.444;7.460;2022-11-20T00:12:02;99380.41;;;0.83;67.07
59055;BME280;44845;51.444;7.460;2022-11-20T00:14:27;99381.31;;;0.85;67.05
59055;BME280;44845;51.444;7.460;2022-11-20T00:16:53;99368.53;;;0.90;67.37
59055;BME280;44845;51.444;7.460;2022-11-20T00:19:18;99378.84;;;0.90;66.67
59055;BME280;44845;51.444;7.460;2022-11-20T00:21:43;99381.56;;;0.96;67.22
59055;BME280;44845;51.444;7.460;2022-11-20T00:24:09;99378.13;;;0.96;67.59
59055;BME280;44845;51.444;7.460;2022-11-20T00:26:35;99375.50;;;0.94;68.25
59055;BME280;44845;51.444;7.460;2022-11-20T00:29:01;99383.41;;;1.00;68.44
59055;BME280;44845;51.444;7.460;2022-11-20T00:31:27;99369.81;;;1.09;68.35
59055;BME280;44845;51.444;7.460;2022-11-20T00:33:53;99369.09;;;1.15;68.32
59055;BME280;44845;51.444;7.460;2022-11-20T00:36:24;99375.19;;;1.19;68.44
59055;BME280;44845;51.444;7.460;2022-11-20T00:38:54;99382.84;;;1.14;68.71
59055;BME280;44845;51.444;7.460;2022-11-20T00:41:20;99378.56;;;1.16;68.38
59055;BME280;44845;51.444;7.460;2022-11-20T00:43:45;99381.25;;;1.21;68.36
59055;BME280;44845;51.444;7.460;2022-11-20T00:46:14;99382.16;;;1.23;68.13
59055;BME280;44845;51.444;7.460;2022-11-20T00:48:39;99379.47;;;1.18;69.14
59055;BME280;44845;51.444;7.460;2022-11-20T00:51:05;99381.38;;;1.26;69.41
59055;BME280;44845;51.444;7.460;2022-11-20T00:53:31;99377.94;;;1.25;69.27
59055;BME280;44845;51.444;7.460;2022-11-20T00:55:58;99374.53;;;1.28;69.25
59055;BME280;44845;51.444;7.460;2022-11-20T00:58:24;99373.03;;;1.38;69.29
59055;BME280;44845;51.444;7.460;2022-11-20T01:00:50;99373.13;;;1.42;69.52
59055;BME280;44845;51.444;7.460;2022-11-20T01:03:17;99376.66;;;1.48;69.10
59055;BME280;44845;51.444;7.460;2022-11-20T01:05:42;99384.41;;;1.46;69.44
59055;BME280;44845;51.444;7.460;2022-11-20T01:08:08;99373.19;;;1.45;69.51
59055;BME280;44845;51.444;7.460;2022-11-20T01:10:33;99380.09;;;1.45;69.28
59055;BME280;44845;51.444;7.460;2022-11-20T01:12:58;99374.09;;;1.48;69.96
59055;BME280;44845;51.444;7.460;2022-11-20T01:15:43;99364.69;;;1.50;70.29
59055;BME280;44845;51.444;7.460;2022-11-20T01:18:08;99364.69;;;1.50;70.62
59055;BME280;44845;51.444;7.460;2022-11-20T01:20:35;99354.25;;;1.46;70.74
59055;BME280;44845;51.444;7.460;2022-11-20T01:23:01;99359.56;;;1.53;70.69
59055;BME280;44845;51.444;7.460;2022-11-20T01:25:26;99354.34;;;1.50;71.05
59055;BME280;44845;51.444;7.460;2022-11-20T01:27:52;99360.44;;;1.53;70.74
59055;BME280;44845;51.444;7.460;2022-11-20T01:30:17;99354.53;;;1.59;71.00
59055;BME280;44845;51.444;7.460;2022-11-20T01:32:42;99354.44;;;1.54;71.22
59055;BME280;44845;51.444;7.460;2022-11-20T01:35:08;99368.44;;;1.66;70.82
59055;BME280;44845;51.444;7.460;2022-11-20T01:37:34;99364.09;;;1.63;71.16
59055;BME280;44845;51.444;7.460;2022-11-20T01:40:00;99367.47;;;1.61;70.78
59055;BME280;44845;51.444;7.460;2022-11-20T01:42:27;99362.34;;;1.62;71.20
59055;BME280;44845;51.444;7.460;2022-11-20T01:47:55;99356.41;;;1.68;71.92
59055;BME280;44845;51.444;7.460;2022-11-20T01:50:26;99353.03;;;1.72;71.79
59055;BME280;44845;51.444;7.460;2022-11-20T01:53:05;99346.13;;;1.70;72.20
59055;BME280;44845;51.444;7.460;2022-11-20T01:55:41;99338.38;;;1.71;71.99
59055;BME280;44845;51.444;7.460;2022-11-20T01:58:06;99340.03;;;1.67;72.45
59055;BME280;44845;51.444;7.460;2022-11-20T02:00:32;99342.75;;;1.74;72.01
59055;BME280;44845;51.444;7.460;2022-11-20T02:03:03;99329.94;;;1.80;72.08
59055;BME280;44845;51.444;7.460;2022-11-20T02:05:55;99315.38;;;1.85;72.15
59055;BME280;44845;51.444;7.460;2022-11-20T02:08:23;99315.28;;;1.79;72.53
59055;BME280;44845;51.444;7.460;2022-11-20T02:10:48;99316.97;;;1.78;72.68
59055;BME280;44845;51.444;7.460;2022-11-20T02:13:14;99318.94;;;1.90;72.46
59055;BME280;44845;51.444;7.460;2022-11-20T02:15:58;99323.28;;;1.91;72.50
59055;BME280;44845;51.444;7.460;2022-11-20T02:18:24;99331.94;;;1.95;72.26
59055;BME280;44845;51.444;7.460;2022-11-20T02:20:56;99338.00;;;1.97;72.40
59055;BME280;44845;51.444;7.460;2022-11-20T02:23:38;99336.41;;;2.04;72.35
59055;BME280;44845;51.444;7.460;2022-11-20T02:26:09;99336.47;;;2.07;71.99
59055;BME280;44845;51.444;7.460;2022-11-20T02:28:36;99334.75;;;2.06;72.40
59055;BME280;44845;51.444;7.460;2022-11-20T02:31:01;99331.31;;;2.07;72.39
59055;BME280;44845;51.444;7.460;2022-11-20T02:33:27;99331.38;;;2.10;72.64
59055;BME280;44845;51.444;7.460;2022-11-20T02:35:52;99327.09;;;2.14;72.54
59055;BME280;44845;51.444;7.460;2022-11-20T02:38:18;99322.81;;;2.14;72.13
59055;BME280;44845;51.444;7.460;2022-11-20T02:40:43;99323.69;;;2.15;72.54
59055;BME280;44845;51.444;7.460;2022-11-20T02:43:09;99322.88;;;2.18;72.69
59055;BME280;44845;51.444;7.460;2022-11-20T02:45:35;99311.72;;;2.22;72.36
59055;BME280;44845;51.444;7.460;2022-11-20T02:48:00;99314.38;;;2.27;72.51
59055;BME280;44845;51.444;7.460;2022-11-20T02:50:26;99316.06;;;2.23;72.61
59055;BME280;44845;51.444;7.460;2022-11-20T02:52:51;99323.03;;;2.27;72.98
59055;BME280;44845;51.444;7.460;2022-11-20T02:55:16;99316.16;;;2.29;72.89
59055;BME280;44845;51.444;7.460;2022-11-20T02:57:42;99314.47;;;2.31;72.61
59055;BME280;44845;51.444;7.460;2022-11-20T03:00:08;99309.34;;;2.33;73.09
59055;BME280;44845;51.444;7.460;2022-11-20T03:02:33;99305.88;;;2.32;72.97
59055;BME280;44845;51.444;7.460;2022-11-20T03:04:59;99312.81;;;2.33;73.03
59055;BME280;44845;51.444;7.460;2022-11-20T03:07:24;99310.28;;;2.38;73.17
59055;BME280;44845;51.444;7.460;2022-11-20T03:09:49;99300.91;;;2.45;73.03
59055;BME280;44845;51.444;7.460;2022-11-20T03:12:15;99292.28;;;2.46;72.81
59055;BME280;44845;51.444;7.460;2022-11-20T03:14:40;99295.59;;;2.39;73.03
59055;BME280;44845;51.444;7.460;2022-11-20T03:17:05;99300.97;;;2.48;73.21
59055;BME280;44845;51.444;7.460;2022-11-20T03:19:31;99302.75;;;2.52;72.91
59055;BME280;44845;51.444;7.460;2022-11-20T03:21:56;99295.06;;;2.58;72.94
59055;BME280;44845;51.444;7.460;2022-11-20T03:24:22;99302.06;;;2.63;72.62
59055;BME280;44845;51.444;7.460;2022-11-20T03:26:47;99297.81;;;2.68;72.65
59055;BME280;44845;51.444;7.460;2022-11-20T03:29:12;99288.38;;;2.73;72.26
59055;BME280;44845;51.444;7.460;2022-11-20T03:31:39;99285.84;;;2.76;72.01
59055;BME280;44845;51.444;7.460;2022-11-20T03:34:06;99279.84;;;2.79;71.77
59055;BME280;44845;51.444;7.460;2022-11-20T03:36:32;99266.06;;;2.80;72.16
59055;BME280;44845;51.444;7.460;2022-11-20T03:38:57;99278.19;;;2.84;71.77
59055;BME280;44845;51.444;7.460;2022-11-20T03:41:25;99277.38;;;2.87;71.50
59055;BME280;44845;51.444;7.460;2022-11-20T03:43:53;99279.06;;;2.85;71.74
59055;BME280;44845;51.444;7.460;2022-11-20T03:46:19;99273.91;;;2.86;71.49
59055;BME280;44845;51.444;7.460;2022-11-20T03:48:45;99272.13;;;2.84;72.47
59055;BME280;44845;51.444;7.460;2022-11-20T03:51:16;99273.03;;;2.86;72.32
59055;BME280;44845;51.444;7.460;2022-11-20T03:53:43;99273.97;;;2.91;72.11
59055;BME280;44845;51.444;7.460;2022-11-20T03:56:11;99271.31;;;2.86;72.19
59055;BME280;44845;51.444;7.460;2022-11-20T03:58:38;99273.13;;;2.92;72.00
59055;BME280;44845;51.444;7.460;2022-11-20T04:01:11;99270.47;;;2.89;72.17
59055;BME280;44845;51.444;7.460;2022-11-20T04:03:39;99265.31;;;2.89;72.05
59055;BME280;44845;51.444;7.460;2022-11-20T04:06:06;99258.41;;;2.91;72.01
59055;BME280;44845;51.444;7.460;2022-11-20T04:08:32;99263.66;;;2.94;72.21
59055;BME280;44845;51.444;7.460;2022-11-20T04:11:18;99267.06;;;2.93;71.75
59055;BME280;44845;51.444;7.460;2022-11-20T04:13:49;99263.69;;;2.97;71.94
59055;BME280;44845;51.444;7.460;2022-11-20T04:16:16;99260.16;;;2.92;71.96
59055;BME280;44845;51.444;7.460;2022-11-20T04:18:41;99261.09;;;2.97;72.05
59055;BME280;44845;51.444;7.460;2022-11-20T04:21:07;99259.28;;;2.91;72.19
59055;BME280;44845;51.444;7.460;2022-11-20T04:23:33;99258.44;;;2.92;72.68
59055;BME280;44845;51.444;7.460;2022-11-20T04:28:28;99261.94;;;2.96;72.12
59055;BME280;44845;51.444;7.460;2022-11-20T04:30:53;99255.06;;;2.98;71.82
59055;BME280;44845;51.444;7.460;2022-11-20T04:33:19;99264.53;;;2.96;72.02
59055;BME280;44845;51.444;7.460;2022-11-20T04:35:47;99261.94;;;2.96;72.38
59055;BME280;44845;51.444;7.460;2022-11-20T04:38:13;99260.19;;;2.95;72.13
59055;BME280;44845;51.444;7.460;2022-11-20T04:40:38;99254.22;;;2.99;72.04
59055;BME280;44845;51.444;7.460;2022-11-20T04:43:03;99265.47;;;3.01;72.45
59055;BME280;44845;51.444;7.460;2022-11-20T04:45:29;99264.59;;;3.01;71.63
59055;BME280;44845;51.444;7.460;2022-11-20T04:47:54;99262.00;;;2.99;71.99
59055;BME280;44845;51.444;7.460;2022-11-20T04:50:19;99255.84;;;2.92;72.53
59055;BME280;44845;51.444;7.460;2022-11-20T04:52:45;99255.88;;;2.94;72.27
59055;BME280;44845;51.444;7.460;2022-11-20T04:55:10;99256.75;;;2.96;72.24
59055;BME280;44845;51.444;7.460;2022-11-20T04:57:35;99260.19;;;2.95;72.54
59055;BME280;44845;51.444;7.460;2022-11-20T05:00:01;99257.63;;;2.97;72.08
59055;BME280;44845;51.444;7.460;2022-11-20T05:02:26;99257.66;;;2.98;71.88
59055;BME280;44845;51.444;7.460;2022-11-20T05:04:51;99261.06;;;2.96;71.73
59055;BME280;44845;51.444;7.460;2022-11-20T05:07:17;99263.69;;;2.97;72.00
59055;BME280;44845;51.444;7.460;2022-11-20T05:09:42;99266.31;;;2.99;71.60
59055;BME280;44845;51.444;7.460;2022-11-20T05:12:08;99266.34;;;3.02;71.88
59055;BME280;44845;51.444;7.460;2022-11-20T05:14:34;99274.06;;;2.97;71.79
59055;BME280;44845;51.444;7.460;2022-11-20T05:17:00;99264.59;;;3.01;71.46
59055;BME280;44845;51.444;7.460;2022-11-20T05:19:25;99265.41;;;2.98;71.17
59055;BME280;44845;51.444;7.460;2022-11-20T05:21:50;99271.44;;;2.96;70.89
59055;BME280;44845;51.444;7.460;2022-11-20T05:24:16;99273.97;;;2.91;71.43
59055;BME280;44845;51.444;7.460;2022-11-20T05:26:41;99273.13;;;2.92;71.67
59055;BME280;44845;51.444;7.460;2022-11-20T05:29:10;99268.84;;;2.94;71.56
59055;BME280;44845;51.444;7.460;2022-11-20T05:31:35;99272.28;;;2.95;71.60
59055;BME280;44845;51.444;7.460;2022-11-20T05:34:02;99263.72;;;3.00;71.80
59055;BME280;44845;51.444;7.460;2022-11-20T05:36:27;99256.84;;;3.02;71.48
59055;BME280;44845;51.444;7.460;2022-11-20T05:38:53;99262.00;;;2.99;71.68
59055;BME280;44845;51.444;7.460;2022-11-20T05:41:20;99257.66;;;2.98;71.41
59055;BME280;44845;51.444;7.460;2022-11-20T05:43:47;99258.41;;;2.91;71.55
59055;BME280;44845;51.444;7.460;2022-11-20T05:46:15;99263.66;;;2.94;71.49
59055;BME280;44845;51.444;7.460;2022-11-20T05:48:42;99253.19;;;2.88;71.41
59055;BME280;44845;51.444;7.460;2022-11-20T05:51:10;99254.09;;;2.90;71.36
59055;BME280;44845;51.444;7.460;2022-11-20T05:53:36;99257.53;;;2.87;71.00
59055;BME280;44845;51.444;7.460;2022-11-20T05:56:06;99260.03;;;2.83;71.24
59055;BME280;44845;51.444;7.460;2022-11-20T05:58:33;99259.13;;;2.80;70.87
59055;BME280;44845;51.444;7.460;2022-11-20T06:01:13;99257.34;;;2.78;71.05
59055;BME280;44845;51.444;7.460;2022-11-20T06:03:39;99261.69;;;2.77;70.75
59055;BME280;44845;51.444;7.460;2022-11-20T06:06:05;99258.16;;;2.72;71.18
59055;BME280;44845;51.444;7.460;2022-11-20T06:08:31;99259.88;;;2.73;70.70
59055;BME280;44845;51.444;7.460;2022-11-20T06:10:57;99254.72;;;2.73;70.39
59055;BME280;44845;51.444;7.460;2022-11-20T06:13:22;99258.97;;;2.68;70.71
59055;BME280;44845;51.444;7.460;2022-11-20T06:15:52;99258.94;;;2.66;70.58
59055;BME280;44845;51.444;7.460;2022-11-20T06:18:17;99264.09;;;2.66;70.48
59055;BME280;44845;51.444;7.460;2022-11-20T06:20:43;99261.50;;;2.65;70.63
59055;BME280;44845;51.444;7.460;2022-11-20T06:23:08;99258.03;;;2.63;70.67
59055;BME280;44845;51.444;7.460;2022-11-20T06:25:38;99271.03;;;2.67;70.80
59055;BME280;44845;51.444;7.460;2022-11-20T06:28:03;99271.81;;;2.62;70.42
59055;BME280;44845;51.444;7.460;2022-11-20T06:30:29;99262.34;;;2.62;70.75
59055;BME280;44845;51.444;7.460;2022-11-20T06:32:54;99258.81;;;2.57;70.64
59055;BME280;44845;51.444;7.460;2022-11-20T06:35:19;99262.28;;;2.61;70.46
59055;BME280;44845;51.444;7.460;2022-11-20T06:37:45;99267.41;;;2.56;70.30
59055;BME280;44845;51.444;7.460;2022-11-20T06:40:11;99268.28;;;2.56;70.25
59055;BME280;44845;51.444;7.460;2022-11-20T06:42:36;99264.75;;;2.51;70.88
59055;BME280;44845;51.444;7.460;2022-11-20T06:45:02;99263.84;;;2.47;70.44
59055;BME280;44845;51.444;7.460;2022-11-20T06:47:27;99263.84;;;2.49;69.97
59055;BME280;44845;51.444;7.460;2022-11-20T06:49:52;99272.41;;;2.43;69.97
59055;BME280;44845;51.444;7.460;2022-11-20T06:52:18;99264.47;;;2.32;70.07
59055;BME280;44845;51.444;7.460;2022-11-20T06:54:44;99271.38;;;2.33;70.08
59055;BME280;44845;51.444;7.460;2022-11-20T06:57:09;99272.16;;;2.29;70.48
59055;BME280;44845;51.444;7.460;2022-11-20T06:59:34;99286.72;;;2.21;70.14
59055;BME280;44845;51.444;7.460;2022-11-20T07:02:00;99281.56;;;2.24;70.53
59055;BME280;44845;51.444;7.460;2022-11-20T07:04:25;99280.72;;;2.25;70.68
59055;BME280;44845;51.444;7.460;2022-11-20T07:06:50;99286.75;;;2.24;70.25
59055;BME280;44845;51.444;7.460;2022-11-20T07:09:16;99279.84;;;2.23;70.32
59055;BME280;44845;51.444;7.460;2022-11-20T07:11:41;99272.00;;;2.20;70.35
59055;BME280;44845;51.444;7.460;2022-11-20T07:14:06;99281.47;;;2.18;70.10
59055;BME280;44845;51.444;7.460;2022-11-20T07:16:32;99284.03;;;2.16;70.58
59055;BME280;44845;51.444;7.460;2022-11-20T07:18:57;99287.47;;;2.17;70.14
59055;BME280;44845;51.444;7.460;2022-11-20T07:21:23;99290.06;;;2.17;70.30
59055;BME280;44845;51.444;7.460;2022-11-20T07:23:48;99290.03;;;2.13;70.70
59055;BME280;44845;51.444;7.460;2022-11-20T07:26:13;99293.50;;;2.16;70.14
59055;BME280;44845;51.444;7.460;2022-11-20T07:28:39;99294.25;;;2.10;70.21
59055;BME280;44845;51.444;7.460;2022-11-20T07:31:05;99305.50;;;2.10;70.11
59055;BME280;44845;51.444;7.460;2022-11-20T07:33:32;99302.00;;;2.08;70.33
59055;BME280;44845;51.444;7.460;2022-11-20T07:35:59;99305.34;;;2.02;70.49
59055;BME280;44845;51.444;7.460;2022-11-20T07:38:25;99300.31;;;2.10;70.21
59055;BME280;44845;51.444;7.460;2022-11-20T07:40:54;99307.22;;;2.11;69.93
59055;BME280;44845;51.444;7.460;2022-11-20T07:43:20;99299.50;;;2.13;70.39
59055;BME280;44845;51.444;7.460;2022-11-20T07:45:45;99307.28;;;2.13;69.65
59055;BME280;44845;51.444;7.460;2022-11-20T07:48:10;99299.50;;;2.13;69.97
59055;BME280;44845;51.444;7.460;2022-11-20T07:50:36;99296.06;;;2.14;69.99
59055;BME280;44845;51.444;7.460;2022-11-20T07:53:04;99305.56;;;2.13;69.96
59055;BME280;44845;51.444;7.460;2022-11-20T07:55:30;99297.72;;;2.10;69.95
59055;BME280;44845;51.444;7.460;2022-11-20T07:57:56;99308.19;;;2.17;69.94
59055;BME280;44845;51.444;7.460;2022-11-20T08:00:22;99302.91;;;2.12;70.14
59055;BME280;44845;51.444;7.460;2022-11-20T08:02:48;99304.63;;;2.10;69.69
59055;BME280;44845;51.444;7.460;2022-11-20T08:05:13;99305.50;;;2.10;70.08
59055;BME280;44845;51.444;7.460;2022-11-20T08:07:40;99302.03;;;2.10;70.27
59055;BME280;44845;51.444;7.460;2022-11-20T08:10:06;99299.38;;;2.07;70.30
59055;BME280;44845;51.444;7.460;2022-11-20T08:12:32;99300.25;;;2.07;70.41
59055;BME280;44845;51.444;7.460;2022-11-20T08:15:16;99297.72;;;2.10;69.88
59055;BME280;44845;51.444;7.460;2022-11-20T08:17:41;99301.19;;;2.11;70.02
59055;BME280;44845;51.444;7.460;2022-11-20T08:20:07;99295.22;;;2.13;70.54
59055;BME280;44845;51.444;7.460;2022-11-20T08:22:33;99300.41;;;2.17;69.70
59055;BME280;44845;51.444;7.460;2022-11-20T08:24:58;99296.88;;;2.11;70.32
59055;BME280;44845;51.444;7.460;2022-11-20T08:27:23;99291.69;;;2.11;69.99
59055;BME280;44845;51.444;7.460;2022-11-20T08:29:49;99296.03;;;2.12;70.40
59055;BME280;44845;51.444;7.460;2022-11-20T08:32:14;99293.28;;;2.03;70.55
59055;BME280;44845;51.444;7.460;2022-11-20T08:34:40;99286.56;;;2.13;70.51
59055;BME280;44845;51.444;7.460;2022-11-20T08:37:05;99291.75;;;2.14;70.10
59055;BME280;44845;51.444;7.460;2022-11-20T08:39:30;99295.22;;;2.13;70.11
59055;BME280;44845;51.444;7.460;2022-11-20T08:41:56;99294.25;;;2.10;70.44
59055;BME280;44845;51.444;7.460;2022-11-20T08:44:21;99293.44;;;2.12;70.45
59055;BME280;44845;51.444;7.460;2022-11-20T08:46:47;99288.28;;;2.12;70.30
59055;BME280;44845;51.444;7.460;2022-11-20T08:49:14;99282.34;;;2.18;70.06
59055;BME280;44845;51.444;7.460;2022-11-20T08:51:40;99278.09;;;2.22;69.79
59055;BME280;44845;51.444;7.460;2022-11-20T08:54:06;99279.84;;;2.23;70.14
59055;BME280;44845;51.444;7.460;2022-11-20T08:56:32;99284.13;;;2.22;70.35
59055;BME280;44845;51.444;7.460;2022-11-20T08:58:57;99281.56;;;2.24;70.29
59055;BME280;44845;51.444;7.460;2022-11-20T09:01:24;99280.72;;;2.23;70.08
59055;BME280;44845;51.444;7.460;2022-11-20T09:03:50;99278.91;;;2.19;70.50
59055;BME280;44845;51.444;7.460;2022-11-20T09:06:15;99285.00;;;2.23;70.83
59055;BME280;44845;51.444;7.460;2022-11-20T09:08:41;99286.78;;;2.25;70.53
59055;BME280;44845;51.444;7.460;2022-11-20T09:11:07;99283.31;;;2.25;71.23
59055;BME280;44845;51.444;7.460;2022-11-20T09:13:34;99285.91;;;2.27;71.31
59055;BME280;44845;51.444;7.460;2022-11-20T09:16:02;99279.94;;;2.29;71.06
59055;BME280;44845;51.444;7.460;2022-11-20T09:18:28;99282.59;;;2.34;70.51
59055;BME280;44845;51.444;7.460;2022-11-20T09:20:59;99287.75;;;2.34;70.96
59055;BME280;44845;51.444;7.460;2022-11-20T09:23:25;99284.41;;;2.40;70.42
59055;BME280;44845;51.444;7.460;2022-11-20T09:25:51;99284.41;;;2.40;70.45
59055;BME280;44845;51.444;7.460;2022-11-20T09:28:17;99281.06;;;2.45;70.10
59055;BME280;44845;51.444;7.460;2022-11-20T09:30:43;99275.00;;;2.45;69.76
59055;BME280;44845;51.444;7.460;2022-11-20T09:33:09;99271.63;;;2.49;69.75
59055;BME280;44845;51.444;7.460;2022-11-20T09:35:34;99276.84;;;2.52;69.50
59055;BME280;44845;51.444;7.460;2022-11-20T09:38:04;99272.50;;;2.51;69.66
59055;BME280;44845;51.444;7.460;2022-11-20T09:40:30;99269.97;;;2.54;68.91
59055;BME280;44845;51.444;7.460;2022-11-20T09:48:43;99259.75;;;2.62;69.63
59055;BME280;44845;51.444;7.460;2022-11-20T09:56:38;99249.53;;;2.73;69.15
59055;BME280;44845;51.444;7.460;2022-11-20T09:59:07;99248.75;;;2.79;69.20
59055;BME280;44845;51.444;7.460;2022-11-20T10:01:39;99239.34;;;2.86;69.17
59055;BME280;44845;51.444;7.460;2022-11-20T10:04:08;99244.41;;;2.76;70.05
59055;BME280;44845;51.444;7.460;2022-11-20T10:06:47;99244.63;;;2.92;70.00
59055;BME280;44845;51.444;7.460;2022-11-20T10:09:29;99244.75;;;3.01;69.30
59055;BME280;44845;51.444;7.460;2022-11-20T10:25:50;99243.69;;;3.60;69.48
59055;BME280;44845;51.444;7.460;2022-11-20T10:31:03;99224.94;;;3.86;68.57
59055;BME280;44845;51.444;7.460;2022-11-20T10:33:33;99224.13;;;3.93;67.27
59055;BME280;44845;51.444;7.460;2022-11-20T10:36:17;99223.34;;;4.01;66.81
59055;BME280;44845;51.444;7.460;2022-11-20T10:38:48;99220.78;;;4.04;66.60
59055;BME280;44845;51.444;7.460;2022-11-20T10:41:21;99226.00;;;4.09;66.85
59055;BME280;44845;51.444;7.460;2022-11-20T10:44:00;99220.00;;;4.13;66.85
59055;BME280;44845;51.444;7.460;2022-11-20T10:46:40;99216.53;;;4.12;66.00
59055;BME280;44845;51.444;7.460;2022-11-20T10:49:13;99220.88;;;4.18;65.86
59055;BME280;44845;51.444;7.460;2022-11-20T10:57:16;99210.56;;;4.24;66.34
59055;BME280;44845;51.444;7.460;2022-11-20T10:59:55;99211.47;;;4.31;65.19
59055;BME280;44845;51.444;7.460;2022-11-20T11:02:24;99213.22;;;4.35;65.19
59055;BME280;44845;51.444;7.460;2022-11-20T11:04:56;99205.50;;;4.42;65.66
59055;BME280;44845;51.444;7.460;2022-11-20T11:07:27;99208.09;;;4.42;66.12
59055;BME280;44845;51.444;7.460;2022-11-20T11:09:55;99210.66;;;4.38;65.71
59055;BME280;44845;51.444;7.460;2022-11-20T11:12:24;99207.16;;;4.33;65.12
59055;BME280;44845;51.444;7.460;2022-11-20T11:14:54;99208.03;;;4.35;64.69
59055;BME280;44845;51.444;7.460;2022-11-20T11:17:27;99195.91;;;4.30;65.66
59055;BME280;44845;51.444;7.460;2022-11-20T11:20:05;99182.09;;;4.38;66.22
59055;BME280;44845;51.444;7.460;2022-11-20T11:22:33;99180.41;;;4.44;64.78
59055;BME280;44845;51.444;7.460;2022-11-20T11:24:59;99172.13;;;5.26;78.61
59055;BME280;44845;51.444;7.460;2022-11-20T11:27:25;99167.03;;;5.84;70.13
59055;BME280;44845;51.444;7.460;2022-11-20T11:30:02;99166.16;;;6.29;60.74
59055;BME280;44845;51.444;7.460;2022-11-20T11:32:28;99158.34;;;6.28;59.72
59055;BME280;44845;51.444;7.460;2022-11-20T11:35:05;99154.84;;;6.02;60.26
59055;BME280;44845;51.444;7.460;2022-11-20T11:37:36;99153.13;;;5.71;61.00
59055;BME280;44845;51.444;7.460;2022-11-20T11:40:08;99147.91;;;5.51;61.87
59055;BME280;44845;51.444;7.460;2022-11-20T11:42:44;99146.16;;;5.33;62.42
59055;BME280;44845;51.444;7.460;2022-11-20T11:45:14;99149.56;;;5.24;61.97
59055;BME280;44845;51.444;7.460;2022-11-20T11:50:27;99137.41;;;5.12;63.40
59055;BME280;44845;51.444;7.460;2022-11-20T12:00:32;99131.31;;;5.05;63.30
59055;BME280;44845;51.444;7.460;2022-11-20T12:03:08;99127.00;;;5.05;62.90
59055;BME280;44845;51.444;7.460;2022-11-20T12:06:01;99123.53;;;5.06;62.18
59055;BME280;44845;51.444;7.460;2022-11-20T12:08:36;99116.63;;;5.10;62.61
59055;BME280;44845;51.444;7.460;2022-11-20T12:11:19;99113.19;;;5.16;62.51
59055;BME280;44845;51.444;7.460;2022-11-20T12:13:57;99102.78;;;5.17;62.03
59055;BME280;44845;51.444;7.460;2022-11-20T12:16:24;99101.03;;;5.18;62.97
59055;BME280;44845;51.444;7.460;2022-11-20T12:18:51;99093.22;;;5.16;62.53
59055;BME280;44845;51.444;7.460;2022-11-20T12:29:14;99079.38;;;5.14;62.67
59055;BME280;44845;51.444;7.460;2022-11-20T12:34:44;99075.91;;;5.12;63.69
59055;BME280;44845;51.444;7.460;2022-11-20T12:43:01;99068.09;;;5.14;63.23
59055;BME280;44845;51.444;7.460;2022-11-20T12:46:08;99069.84;;;5.15;63.23
59055;BME280;44845;51.444;7.460;2022-11-20T13:01:54;99062.88;;;5.04;63.41
59055;BME280;44845;51.444;7.460;2022-11-20T13:07:10;99042.97;;;4.99;62.79
59055;BME280;44845;51.444;7.460;2022-11-20T13:09:45;99047.25;;;4.96;63.83
59055;BME280;44845;51.444;7.460;2022-11-20T13:12:20;99047.28;;;4.95;65.20
59055;BME280;44845;51.444;7.460;2022-11-20T13:15:01;99038.59;;;4.88;65.72
59055;BME280;44845;51.444;7.460;2022-11-20T13:18:07;99030.81;;;4.93;66.07
59055;BME280;44845;51.444;7.460;2022-11-20T13:20:36;99016.94;;;4.88;65.65
59055;BME280;44845;51.444;7.460;2022-11-20T13:23:01;99010.91;;;4.89;68.27
59055;BME280;44845;51.444;7.460;2022-11-20T13:25:38;99006.53;;;4.88;65.49
59055;BME280;44845;51.444;7.460;2022-11-20T13:28:27;99007.41;;;4.83;67.28
59055;BME280;44845;51.444;7.460;2022-11-20T13:30:54;98991.84;;;4.87;66.30
59055;BME280;44845;51.444;7.460;2022-11-20T13:33:36;98987.50;;;4.90;67.60
59055;BME280;44845;51.444;7.460;2022-11-20T13:36:19;98986.63;;;4.90;67.24
59055;BME280;44845;51.444;7.460;2022-11-20T13:38:52;98979.69;;;4.86;67.17
59055;BME280;44845;51.444;7.460;2022-11-20T13:41:25;98979.69;;;4.87;65.41
59055;BME280;44845;51.444;7.460;2022-11-20T15:11:33;98842.88;;;4.69;72.21
59055;BME280;44845;51.444;7.460;2022-11-20T15:14:05;98835.94;;;4.74;72.38
59055;BME280;44845;51.444;7.460;2022-11-20T15:16:31;98839.41;;;4.71;72.28
59055;BME280;44845;51.444;7.460;2022-11-20T15:18:57;98830.75;;;4.71;72.32
59055;BME280;44845;51.444;7.460;2022-11-20T15:21:22;98834.19;;;4.70;72.42
59055;BME280;44845;51.444;7.460;2022-11-20T15:23:48;98827.28;;;4.72;72.69
59055;BME280;44845;51.444;7.460;2022-11-20T15:26:23;98818.63;;;4.70;73.28
59055;BME280;44845;51.444;7.460;2022-11-20T15:28:50;98809.97;;;4.71;72.45
59055;BME280;44845;51.444;7.460;2022-11-20T15:31:18;98806.50;;;4.72;72.49
59055;BME280;44845;51.444;7.460;2022-11-20T15:33:43;98800.44;;;4.73;72.82
59055;BME280;44845;51.444;7.460;2022-11-20T15:36:09;98807.34;;;4.72;73.67
59055;BME280;44845;51.444;7.460;2022-11-20T15:38:35;98804.78;;;4.74;73.48
59055;BME280;44845;51.444;7.460;2022-11-20T15:41:01;98794.38;;;4.68;73.75
59055;BME280;44845;51.444;7.460;2022-11-20T15:43:26;98789.19;;;4.71;73.80
59055;BME280;44845;51.444;7.460;2022-11-20T15:46:15;98784.00;;;4.74;74.42
59055;BME280;44845;51.444;7.460;2022-11-20T15:48:45;98780.50;;;4.72;74.30
59055;BME280;44845;51.444;7.460;2022-11-20T15:53:40;98764.94;;;4.72;74.74
59055;BME280;44845;51.444;7.460;2022-11-20T15:56:07;98765.81;;;4.71;74.66
59055;BME280;44845;51.444;7.460;2022-11-20T15:58:34;98766.66;;;4.73;75.10
59055;BME280;44845;51.444;7.460;2022-11-20T16:00:59;98754.53;;;4.72;75.59
59055;BME280;44845;51.444;7.460;2022-11-20T16:03:25;98745.03;;;4.76;75.51
59055;BME280;44845;51.444;7.460;2022-11-20T16:05:50;98738.09;;;4.76;76.07
59055;BME280;44845;51.444;7.460;2022-11-20T16:08:15;98726.84;;;4.76;76.30